createdAt,value
2019-03-20T09:44:33.068Z,20.72
2019-03-20T09:47:16.099Z,36.90
2019-03-20T09:49:51.665Z,15.23
2019-03-20T09:52:25.607Z,21.23
2019-03-20T09:55:00.361Z,30.23
2019-03-20T09:57:48.414Z,20.92
2019-03-20T10:00:28.695Z,12.03
2019-03-20T10:03:07.342Z,12.73
2019-03-20T10:05:42.221Z,16.17
2019-03-20T10:08:17.827Z,15.72
2019-03-20T10:10:55.696Z,17.67
2019-03-20T10:13:47.515Z,16.93
2019-03-20T10:16:35.383Z,9.18
2019-03-20T10:19:13.739Z,9.83
2019-03-20T10:21:49.063Z,10.53
2019-03-20T10:24:26.456Z,10.68
2019-03-20T10:27:02.230Z,10.75
2019-03-20T10:40:40.807Z,8.00
2019-03-20T10:43:18.248Z,11.43
2019-03-20T10:45:58.609Z,7.15
2019-03-20T10:48:37.243Z,5.60
2019-03-20T10:51:12.764Z,7.80
2019-03-20T10:53:47.158Z,4.03
2019-03-20T10:56:23.097Z,5.83
2019-03-20T10:58:59.765Z,13.03
2019-03-20T11:01:42.541Z,7.42
2019-03-20T11:04:19.329Z,4.97
2019-03-20T11:07:47.430Z,5.05
2019-03-20T11:13:41.597Z,9.25
2019-03-20T11:23:05.493Z,12.88
2019-03-20T11:30:42.675Z,11.55
2019-03-20T11:50:33.325Z,9.25
2019-03-20T11:53:16.858Z,11.03
2019-03-20T11:56:00.843Z,9.63
2019-03-20T11:58:41.383Z,12.82
2019-03-20T12:01:18.516Z,10.60
2019-03-20T12:03:56.698Z,9.95
2019-03-20T12:06:37.982Z,14.73
2019-03-20T12:09:21.208Z,20.62
2019-03-20T12:12:07.159Z,12.65
2019-03-20T12:15:00.158Z,16.97
2019-03-20T12:17:59.911Z,10.53
2019-03-20T12:20:34.893Z,10.90
2019-03-20T12:23:09.503Z,18.85
2019-03-20T12:25:43.666Z,10.80
2019-03-20T12:28:36.156Z,13.32
2019-03-20T12:31:09.847Z,11.80
2019-03-20T12:33:43.221Z,9.75
2019-03-20T12:36:16.976Z,15.68
2019-03-20T12:38:50.326Z,15.60
2019-03-20T12:41:24.941Z,11.95
2019-03-20T12:43:58.297Z,7.83
2019-03-20T12:46:41.343Z,10.20
2019-03-20T12:49:07.167Z,6.70
2019-03-20T12:51:44.134Z,11.00
2019-03-20T12:54:18.788Z,12.05
2019-03-20T12:56:53.836Z,12.05
2019-03-20T12:59:27.919Z,8.23
2019-03-20T13:02:01.196Z,19.35
2019-03-20T13:04:36.213Z,19.80
2019-03-20T13:07:09.413Z,15.23
2019-03-20T13:09:42.648Z,7.60
2019-03-20T13:12:15.988Z,13.85
2019-03-20T13:14:49.210Z,8.00
2019-03-20T13:17:22.683Z,8.23
2019-03-20T13:19:56.120Z,9.05
2019-03-20T13:22:29.295Z,7.20
2019-03-20T13:25:02.493Z,8.68
2019-03-20T13:27:35.780Z,12.60
2019-03-20T13:30:20.878Z,6.80
2019-03-20T13:32:54.249Z,18.52
2019-03-20T13:35:27.561Z,12.50
2019-03-20T13:38:02.168Z,11.90
2019-03-20T13:40:35.534Z,7.25
2019-03-20T13:43:09.109Z,11.00
2019-03-20T13:45:42.669Z,8.05
2019-03-20T13:48:16.213Z,8.83
2019-03-20T13:51:03.209Z,9.85
2019-03-20T13:53:38.342Z,7.22
2019-03-20T13:56:12.026Z,12.50
2019-03-20T13:58:46.873Z,11.28
2019-03-20T14:01:20.188Z,13.83
2019-03-20T14:03:56.986Z,9.33
2019-03-20T14:06:32.484Z,12.23
2019-03-20T14:09:08.886Z,9.60
2019-03-20T14:11:42.435Z,11.08
2019-03-20T14:14:15.986Z,9.08
2019-03-20T14:16:50.809Z,8.58
2019-03-20T14:19:24.319Z,22.13
2019-03-20T14:21:57.797Z,9.95
2019-03-20T14:24:31.642Z,7.92
2019-03-20T14:27:05.034Z,14.87
2019-03-20T14:29:39.653Z,10.58
2019-03-20T14:32:13.240Z,11.40
2019-03-20T14:34:46.780Z,11.93
2019-03-20T14:37:20.185Z,15.28
2019-03-20T14:39:53.919Z,13.03
2019-03-20T14:42:27.343Z,10.05
2019-03-20T14:45:01.378Z,10.72
2019-03-20T14:47:42.159Z,22.95
2019-03-20T14:50:14.211Z,13.90
2019-03-20T14:52:47.727Z,10.90
2019-03-20T14:55:21.214Z,28.60
2019-03-20T14:57:54.688Z,24.70
2019-03-20T15:00:29.959Z,17.30
2019-03-20T15:03:04.778Z,19.05
2019-03-20T15:05:37.847Z,11.03
2019-03-20T15:08:10.835Z,10.55
2019-03-20T15:10:46.413Z,10.78
2019-03-20T15:13:19.968Z,10.40
2019-03-20T15:16:03.930Z,6.25
2019-03-20T15:18:37.464Z,30.77
2019-03-20T15:21:11.009Z,12.85
2019-03-20T15:23:44.972Z,8.83
2019-03-20T15:26:19.359Z,8.35
2019-03-20T15:28:52.830Z,10.13
2019-03-20T15:31:26.339Z,11.70
2019-03-20T15:33:59.874Z,14.73
2019-03-20T15:36:34.256Z,20.82
2019-03-20T15:39:10.409Z,28.42
2019-03-20T15:41:44.030Z,24.20
2019-03-20T15:44:17.549Z,15.83
2019-03-20T15:46:51.239Z,13.53
2019-03-20T15:49:24.849Z,66.55
2019-03-20T15:51:59.196Z,67.55
2019-03-20T15:54:36.861Z,21.80
2019-03-20T15:57:11.443Z,15.70
2019-03-20T15:59:44.973Z,13.40
2019-03-20T16:02:18.816Z,13.83
2019-03-20T16:04:52.361Z,32.00
2019-03-20T16:07:26.138Z,45.20
2019-03-20T16:10:00.375Z,25.77
2019-03-20T16:12:34.061Z,19.75
2019-03-20T16:15:10.021Z,22.05
2019-03-20T16:17:44.194Z,28.05
2019-03-20T16:20:18.503Z,41.50
2019-03-20T16:22:52.585Z,47.98
2019-03-20T16:25:26.136Z,52.00
2019-03-20T16:27:59.705Z,52.10
2019-03-20T16:30:33.539Z,77.53
2019-03-20T16:33:07.245Z,57.38
2019-03-20T16:35:41.719Z,37.25
2019-03-20T16:38:17.710Z,94.35
2019-03-20T16:40:51.340Z,105.15
2019-03-20T16:43:25.018Z,80.67
2019-03-20T16:45:59.746Z,86.15
2019-03-20T16:48:33.568Z,68.87
2019-03-20T16:51:08.200Z,61.95
2019-03-20T16:53:41.856Z,99.22
2019-03-20T16:56:17.409Z,111.60
2019-03-20T16:58:52.347Z,95.10
2019-03-20T17:01:26.763Z,116.30
2019-03-20T17:04:01.046Z,152.53
2019-03-20T17:06:38.038Z,183.55
2019-03-20T17:09:12.757Z,171.15
2019-03-20T17:11:49.871Z,256.52
2019-03-20T17:14:37.363Z,231.17
2019-03-20T17:17:34.293Z,206.80
2019-03-20T17:20:11.906Z,298.07
2019-03-20T17:22:51.196Z,387.50
2019-03-20T17:25:30.358Z,305.48
2019-03-20T17:28:17.421Z,822.85
2019-03-20T17:31:17.771Z,687.92
2019-03-20T17:33:54.869Z,331.77
2019-03-20T17:36:35.691Z,234.07
2019-03-20T17:39:14.111Z,200.55
2019-03-20T17:42:14.706Z,87.15
2019-03-20T17:45:11.870Z,34.15
2019-03-20T17:48:22.495Z,32.60
2019-03-20T18:03:09.098Z,137.03
2019-03-20T18:05:46.036Z,149.87
2019-03-20T18:08:19.990Z,188.82
2019-03-20T18:10:54.000Z,278.00
2019-03-20T18:13:28.567Z,308.25
2019-03-20T18:16:02.969Z,289.85
2019-03-20T18:18:44.772Z,361.82
2019-03-20T18:21:21.642Z,331.65
2019-03-20T19:21:28.041Z,111.45
2019-03-20T19:24:08.357Z,71.02
2019-03-20T19:26:50.323Z,48.80
2019-03-20T19:29:49.336Z,45.10
2019-03-20T19:36:25.297Z,47.33
2019-03-20T19:46:13.150Z,55.80
2019-03-20T19:49:00.738Z,59.65
2019-03-20T19:51:50.023Z,45.15
2019-03-20T19:54:29.768Z,38.67
2019-03-20T19:57:10.311Z,32.70
2019-03-20T20:00:08.894Z,31.07
2019-03-20T20:03:10.551Z,26.40
2019-03-20T20:06:02.134Z,32.15
2019-03-20T20:09:04.584Z,26.87
2019-03-20T20:12:11.439Z,31.23
2019-03-20T20:15:26.983Z,50.52
2019-03-20T20:21:26.779Z,102.30
2019-03-20T20:24:11.280Z,42.17
2019-03-20T20:26:49.578Z,46.83
2019-03-20T20:29:30.853Z,34.83
2019-03-20T20:32:39.698Z,45.05
2019-03-20T20:43:24.164Z,22.87
2019-03-20T20:46:08.631Z,22.85
2019-03-20T20:49:02.324Z,30.08
2019-03-20T20:51:39.269Z,29.63
2019-03-20T20:54:37.937Z,27.10
2019-03-20T20:57:14.501Z,28.35
2019-03-20T20:59:53.629Z,29.20
2019-03-20T21:02:32.218Z,59.58
2019-03-20T21:05:20.697Z,85.80
2019-03-20T21:07:58.815Z,50.08
2019-03-20T21:10:34.272Z,51.48
2019-03-20T21:13:09.513Z,43.60
2019-03-20T21:15:51.468Z,40.78
2019-03-20T23:10:14.971Z,30.92
2019-03-20T23:12:52.703Z,31.55
2019-03-20T23:15:28.659Z,31.85
2019-03-20T23:18:04.243Z,28.15
2019-03-20T23:20:38.757Z,32.08
2019-03-20T23:23:13.992Z,29.30
2019-03-20T23:25:48.383Z,27.35
2019-03-20T23:28:23.477Z,24.50
2019-03-20T23:30:57.967Z,29.02
2019-03-20T23:33:32.922Z,26.33
2019-03-20T23:36:08.378Z,36.38
2019-03-20T23:38:44.034Z,38.30
2019-03-20T23:41:19.079Z,26.55
2019-03-20T23:43:54.399Z,25.30
2019-03-20T23:46:29.944Z,31.77
2019-03-20T23:49:24.798Z,40.50
2019-03-20T23:51:59.567Z,29.30
2019-03-20T23:54:47.946Z,38.17
2019-03-20T23:57:22.911Z,30.00
